sensor_id;sensor_type;location;lat;lon;timestamp;pressure;altitude;pressure_sealevel;temperature;humidity
14902;BME280;7542;49.078;9.194;2024-01-30T00:00:47;99916.53;;;28.74;26.02
14902;BME280;7542;49.078;9.194;2024-01-30T00:01:50;99920.88;;;28.75;25.83
14902;BME280;7542;49.078;9.194;2024-01-30T00:02:52;99918.97;;;28.75;26.02
14902;BME280;7542;49.078;9.194;2024-01-30T00:03:55;99921.94;;;28.74;25.84
14902;BME280;7542;49.078;9.194;2024-01-30T00:04:57;99918.16;;;28.75;26.18
14902;BME280;7542;49.078;9.194;2024-01-30T00:05:59;99915.47;;;28.75;25.96
14902;BME280;7542;49.078;9.194;2024-01-30T00:07:01;99915.72;;;28.73;26.18
14902;BME280;7542;49.078;9.194;2024-01-30T00:08:04;99911.16;;;28.74;26.01
14902;BME280;7542;49.078;9.194;2024-01-30T00:09:07;99909.25;;;28.74;25.82
14902;BME280;7542;49.078;9.194;2024-01-30T00:10:09;99913.84;;;28.74;26.12
14902;BME280;7542;49.078;9.194;2024-01-30T00:11:12;99916.06;;;28.77;26.14
14902;BME280;7542;49.078;9.194;2024-01-30T00:12:14;99913.59;;;28.75;25.92
14902;BME280;7542;49.078;9.194;2024-01-30T00:13:16;99910.34;;;28.73;26.08
14902;BME280;7542;49.078;9.194;2024-01-30T00:14:21;99918.16;;;28.75;25.90
14902;BME280;7542;49.078;9.194;2024-01-30T00:15:24;99917.09;;;28.76;25.94
14902;BME280;7542;49.078;9.194;2024-01-30T00:16:27;99910.06;;;28.75;25.90
14902;BME280;7542;49.078;9.194;2024-01-30T00:17:30;99918.97;;;28.75;25.90
14902;BME280;7542;49.078;9.194;2024-01-30T00:18:33;99915.47;;;28.75;26.18
14902;BME280;7542;49.078;9.194;2024-01-30T00:19:35;99916.06;;;28.77;26.11
14902;BME280;7542;49.078;9.194;2024-01-30T00:20:37;99918.97;;;28.75;26.21
14902;BME280;7542;49.078;9.194;2024-01-30T00:21:40;99917.34;;;28.74;25.85
14902;BME280;7542;49.078;9.194;2024-01-30T00:22:43;99917.09;;;28.76;25.94
14902;BME280;7542;49.078;9.194;2024-01-30T00:23:45;99927.91;;;28.76;26.10
14902;BME280;7542;49.078;9.194;2024-01-30T00:24:47;99925.78;;;28.78;26.30
14902;BME280;7542;49.078;9.194;2024-01-30T00:25:50;99923.31;;;28.76;26.23
14902;BME280;7542;49.078;9.194;2024-01-30T00:26:52;99911.69;;;28.76;26.23
14902;BME280;7542;49.078;9.194;2024-01-30T00:27:55;99916.88;;;28.77;26.24
14902;BME280;7542;49.078;9.194;2024-01-30T00:28:57;99922.75;;;28.74;25.79
14902;BME280;7542;49.078;9.194;2024-01-30T00:29:59;99911.47;;;28.77;25.98
14902;BME280;7542;49.078;9.194;2024-01-30T00:31:02;99912.28;;;28.78;26.10
14902;BME280;7542;49.078;9.194;2024-01-30T00:32:05;99912.78;;;28.75;26.15
14902;BME280;7542;49.078;9.194;2024-01-30T00:33:09;99916.88;;;28.77;26.19
14902;BME280;7542;49.078;9.194;2024-01-30T00:34:11;99918.75;;;28.77;25.82
14902;BME280;7542;49.078;9.194;2024-01-30T00:35:14;99916.88;;;28.77;25.96
14902;BME280;7542;49.078;9.194;2024-01-30T00:36:17;99918.75;;;28.77;26.13
14902;BME280;7542;49.078;9.194;2024-01-30T00:37:20;99920.13;;;28.79;26.09
14902;BME280;7542;49.078;9.194;2024-01-30T00:38:22;99918.50;;;28.78;26.11
14902;BME280;7542;49.078;9.194;2024-01-30T00:39:25;99918.75;;;28.77;26.23
14902;BME280;7542;49.078;9.194;2024-01-30T00:40:27;99924.16;;;28.77;26.00
14902;BME280;7542;49.078;9.194;2024-01-30T00:41:30;99923.09;;;28.78;25.88
14902;BME280;7542;49.078;9.194;2024-01-30T00:42:34;99922.00;;;28.79;25.84
14902;BME280;7542;49.078;9.194;2024-01-30T00:43:36;99925.78;;;28.78;25.95
14902;BME280;7542;49.078;9.194;2024-01-30T00:44:39;99925.78;;;28.78;25.91
14902;BME280;7542;49.078;9.194;2024-01-30T00:45:43;99927.41;;;28.79;25.84
14902;BME280;7542;49.078;9.194;2024-01-30T00:46:46;99922.25;;;28.77;26.13
14902;BME280;7542;49.078;9.194;2024-01-30T00:47:49;99923.09;;;28.78;26.26
14902;BME280;7542;49.078;9.194;2024-01-30T00:48:51;99923.09;;;28.78;25.93
14902;BME280;7542;49.078;9.194;2024-01-30T00:49:55;99922.00;;;28.79;26.16
14902;BME280;7542;49.078;9.194;2024-01-30T00:50:58;99923.88;;;28.78;25.91
14902;BME280;7542;49.078;9.194;2024-01-30T00:52:01;99923.09;;;28.78;26.11
14902;BME280;7542;49.078;9.194;2024-01-30T00:53:03;99929.78;;;28.75;25.96
14902;BME280;7542;49.078;9.194;2024-01-30T00:54:06;99928.47;;;28.78;26.02
14902;BME280;7542;49.078;9.194;2024-01-30T00:55:08;99929.03;;;28.80;26.14
14902;BME280;7542;49.078;9.194;2024-01-30T00:56:11;99930.91;;;28.79;26.08
14902;BME280;7542;49.078;9.194;2024-01-30T00:57:16;99923.09;;;28.78;25.91
14902;BME280;7542;49.078;9.194;2024-01-30T00:58:18;99922.00;;;28.79;26.11
14902;BME280;7542;49.078;9.194;2024-01-30T00:59:21;99921.19;;;28.78;25.80
14902;BME280;7542;49.078;9.194;2024-01-30T01:00:24;99921.19;;;28.78;25.95
14902;BME280;7542;49.078;9.194;2024-01-30T01:01:31;99920.94;;;28.80;25.78
14902;BME280;7542;49.078;9.194;2024-01-30T01:02:35;99925.53;;;28.79;26.08
14902;BME280;7542;49.078;9.194;2024-01-30T01:03:38;99915.78;;;28.78;25.93
14902;BME280;7542;49.078;9.194;2024-01-30T01:04:43;99913.66;;;28.80;25.93
14902;BME280;7542;49.078;9.194;2024-01-30T01:05:46;99915.53;;;28.80;25.91
14902;BME280;7542;49.078;9.194;2024-01-30T01:06:49;99909.59;;;28.78;26.04
14902;BME280;7542;49.078;9.194;2024-01-30T01:07:55;99914.97;;;28.78;25.86
14902;BME280;7542;49.078;9.194;2024-01-30T01:09:01;99919.31;;;28.79;26.10
14902;BME280;7542;49.078;9.194;2024-01-30T01:10:07;99917.41;;;28.79;25.81
14902;BME280;7542;49.078;9.194;2024-01-30T01:11:10;99915.47;;;28.75;25.87
14902;BME280;7542;49.078;9.194;2024-01-30T01:12:13;99923.09;;;28.78;26.06
14902;BME280;7542;49.078;9.194;2024-01-30T01:13:15;99921.44;;;28.77;25.90
14902;BME280;7542;49.078;9.194;2024-01-30T01:14:18;99919.78;;;28.76;25.97
14902;BME280;7542;49.078;9.194;2024-01-30T01:15:21;99919.78;;;28.76;26.17
14902;BME280;7542;49.078;9.194;2024-01-30T01:16:23;99924.16;;;28.77;26.10
14902;BME280;7542;49.078;9.194;2024-01-30T01:17:26;99925.78;;;28.78;26.14
14902;BME280;7542;49.078;9.194;2024-01-30T01:18:31;99916.88;;;28.77;26.11
14902;BME280;7542;49.078;9.194;2024-01-30T01:19:34;99922.25;;;28.77;25.88
14902;BME280;7542;49.078;9.194;2024-01-30T01:20:37;99933.88;;;28.78;25.99
14902;BME280;7542;49.078;9.194;2024-01-30T01:21:39;99922.25;;;28.77;26.10
14902;BME280;7542;49.078;9.194;2024-01-30T01:22:42;99927.66;;;28.77;25.85
14902;BME280;7542;49.078;9.194;2024-01-30T01:23:46;99925.78;;;28.78;25.87
14902;BME280;7542;49.078;9.194;2024-01-30T01:24:48;99928.47;;;28.78;25.92
14902;BME280;7542;49.078;9.194;2024-01-30T01:25:51;99930.59;;;28.76;26.23
14902;BME280;7542;49.078;9.194;2024-01-30T01:26:53;99929.56;;;28.77;25.91
14902;BME280;7542;49.078;9.194;2024-01-30T01:27:55;99926.84;;;28.77;26.02
14902;BME280;7542;49.078;9.194;2024-01-30T01:28:58;99927.66;;;28.77;26.07
14902;BME280;7542;49.078;9.194;2024-01-30T01:30:02;99932.25;;;28.77;26.01
14902;BME280;7542;49.078;9.194;2024-01-30T01:31:07;99926.00;;;28.76;26.10
14902;BME280;7542;49.078;9.194;2024-01-30T01:32:09;99926.00;;;28.76;25.70
14902;BME280;7542;49.078;9.194;2024-01-30T01:33:11;99931.19;;;28.78;25.71
14902;BME280;7542;49.078;9.194;2024-01-30T01:34:17;99936.56;;;28.78;25.75
14902;BME280;7542;49.078;9.194;2024-01-30T01:35:21;99933.06;;;28.77;25.88
14902;BME280;7542;49.078;9.194;2024-01-30T01:36:24;99927.09;;;28.75;25.84
14902;BME280;7542;49.078;9.194;2024-01-30T01:37:28;99927.66;;;28.77;25.99
14902;BME280;7542;49.078;9.194;2024-01-30T01:38:30;99932.25;;;28.77;25.74
14902;BME280;7542;49.078;9.194;2024-01-30T01:39:34;99928.47;;;28.78;25.64
14902;BME280;7542;49.078;9.194;2024-01-30T01:40:37;99925.19;;;28.76;25.64
14902;BME280;7542;49.078;9.194;2024-01-30T01:41:42;99927.34;;;28.74;25.50
14902;BME280;7542;49.078;9.194;2024-01-30T01:42:44;99931.41;;;28.76;25.75
14902;BME280;7542;49.078;9.194;2024-01-30T01:43:48;99923.09;;;28.78;25.89
14902;BME280;7542;49.078;9.194;2024-01-30T01:44:50;99927.91;;;28.76;25.73
14902;BME280;7542;49.078;9.194;2024-01-30T01:45:53;99928.97;;;28.75;25.97
14902;BME280;7542;49.078;9.194;2024-01-30T01:46:57;99924.16;;;28.77;25.66
14902;BME280;7542;49.078;9.194;2024-01-30T01:48:00;99921.13;;;28.73;25.74
14902;BME280;7542;49.078;9.194;2024-01-30T01:49:05;99928.97;;;28.75;26.07
14902;BME280;7542;49.078;9.194;2024-01-30T01:50:08;99931.13;;;28.73;25.74
14902;BME280;7542;49.078;9.194;2024-01-30T01:51:11;99927.34;;;28.74;25.86
14902;BME280;7542;49.078;9.194;2024-01-30T01:52:15;99928.97;;;28.75;25.64
14902;BME280;7542;49.078;9.194;2024-01-30T01:53:19;99928.41;;;28.73;25.90
14902;BME280;7542;49.078;9.194;2024-01-30T01:54:22;99924.09;;;28.72;25.75
14902;BME280;7542;49.078;9.194;2024-01-30T01:55:26;99922.19;;;28.72;25.94
14902;BME280;7542;49.078;9.194;2024-01-30T01:56:31;99927.03;;;28.70;25.75
14902;BME280;7542;49.078;9.194;2024-01-30T01:57:35;99928.69;;;28.71;25.86
14902;BME280;7542;49.078;9.194;2024-01-30T01:58:38;99923.28;;;28.71;25.98
14902;BME280;7542;49.078;9.194;2024-01-30T01:59:41;99924.34;;;28.70;25.87
14902;BME280;7542;49.078;9.194;2024-01-30T02:00:44;99929.50;;;28.72;26.00
14902;BME280;7542;49.078;9.194;2024-01-30T02:01:49;99925.97;;;28.71;25.93
14902;BME280;7542;49.078;9.194;2024-01-30T02:02:55;99923.28;;;28.71;25.93
14902;BME280;7542;49.078;9.194;2024-01-30T02:03:59;99925.41;;;28.69;25.70
14902;BME280;7542;49.078;9.194;2024-01-30T02:05:02;99925.69;;;28.68;25.94
14902;BME280;7542;49.078;9.194;2024-01-30T02:06:07;99922.47;;;28.71;25.75
14902;BME280;7542;49.078;9.194;2024-01-30T02:07:10;99925.41;;;28.69;25.77
14902;BME280;7542;49.078;9.194;2024-01-30T02:08:13;99926.50;;;28.68;25.58
14902;BME280;7542;49.078;9.194;2024-01-30T02:09:15;99928.38;;;28.68;25.80
14902;BME280;7542;49.078;9.194;2024-01-30T02:10:20;99922.97;;;28.68;25.88
14902;BME280;7542;49.078;9.194;2024-01-30T02:11:23;99921.34;;;28.67;25.96
14902;BME280;7542;49.078;9.194;2024-01-30T02:12:26;99921.59;;;28.65;25.94
14902;BME280;7542;49.078;9.194;2024-01-30T02:13:28;99917.53;;;28.63;25.83
14902;BME280;7542;49.078;9.194;2024-01-30T02:14:31;99924.81;;;28.62;25.92
14902;BME280;7542;49.078;9.194;2024-01-30T02:15:33;99926.16;;;28.65;25.70
14902;BME280;7542;49.078;9.194;2024-01-30T02:16:36;99919.16;;;28.64;25.96
14902;BME280;7542;49.078;9.194;2024-01-30T02:17:39;99926.16;;;28.65;25.92
14902;BME280;7542;49.078;9.194;2024-01-30T02:18:41;99924.53;;;28.64;25.70
14902;BME280;7542;49.078;9.194;2024-01-30T02:19:49;99923.47;;;28.65;25.94
14902;BME280;7542;49.078;9.194;2024-01-30T02:20:54;99926.44;;;28.63;25.72
14902;BME280;7542;49.078;9.194;2024-01-30T02:21:58;99923.72;;;28.63;25.81
14902;BME280;7542;49.078;9.194;2024-01-30T02:23:01;99919.16;;;28.64;25.58
14902;BME280;7542;49.078;9.194;2024-01-30T02:24:04;99921.28;;;28.62;25.71
14902;BME280;7542;49.078;9.194;2024-01-30T02:25:09;99924.00;;;28.62;25.83
14902;BME280;7542;49.078;9.194;2024-01-30T02:26:12;99921.56;;;28.60;25.99
14902;BME280;7542;49.078;9.194;2024-01-30T02:27:15;99922.63;;;28.59;25.81
14902;BME280;7542;49.078;9.194;2024-01-30T02:28:17;99927.75;;;28.61;25.84
14902;BME280;7542;49.078;9.194;2024-01-30T02:29:20;99931.53;;;28.59;25.64
14902;BME280;7542;49.078;9.194;2024-01-30T02:30:23;99926.13;;;28.59;25.64
14902;BME280;7542;49.078;9.194;2024-01-30T02:31:26;99926.41;;;28.58;25.55
14902;BME280;7542;49.078;9.194;2024-01-30T02:32:28;99923.44;;;28.59;25.69
14902;BME280;7542;49.078;9.194;2024-01-30T02:33:31;99916.69;;;28.57;25.79
14902;BME280;7542;49.078;9.194;2024-01-30T02:34:34;99917.50;;;28.57;25.93
14902;BME280;7542;49.078;9.194;2024-01-30T02:35:37;99917.97;;;28.54;25.70
14902;BME280;7542;49.078;9.194;2024-01-30T02:36:42;99920.19;;;28.57;25.90
14902;BME280;7542;49.078;9.194;2024-01-30T02:37:44;99914.78;;;28.57;25.88
14902;BME280;7542;49.078;9.194;2024-01-30T02:38:47;99915.28;;;28.54;25.95
14902;BME280;7542;49.078;9.194;2024-01-30T02:39:50;99909.88;;;28.54;25.62
14902;BME280;7542;49.078;9.194;2024-01-30T02:40:52;99913.16;;;28.56;25.82
14902;BME280;7542;49.078;9.194;2024-01-30T02:41:55;99916.94;;;28.55;25.68
14902;BME280;7542;49.078;9.194;2024-01-30T02:42:59;99921.75;;;28.53;25.79
14902;BME280;7542;49.078;9.194;2024-01-30T02:44:03;99922.56;;;28.54;25.71
14902;BME280;7542;49.078;9.194;2024-01-30T02:45:07;99927.97;;;28.54;25.81
14902;BME280;7542;49.078;9.194;2024-01-30T02:46:10;99917.41;;;28.52;25.81
14902;BME280;7542;49.078;9.194;2024-01-30T02:47:12;99918.22;;;28.53;25.53
14902;BME280;7542;49.078;9.194;2024-01-30T02:48:15;99916.59;;;28.52;25.76
14902;BME280;7542;49.078;9.194;2024-01-30T02:49:18;99916.59;;;28.52;25.79
14902;BME280;7542;49.078;9.194;2024-01-30T02:50:21;99921.19;;;28.51;25.84
14902;BME280;7542;49.078;9.194;2024-01-30T02:51:23;99922.00;;;28.52;25.85
14902;BME280;7542;49.078;9.194;2024-01-30T02:52:27;99916.88;;;28.50;25.81
14902;BME280;7542;49.078;9.194;2024-01-30T02:53:29;99920.38;;;28.51;25.53
14902;BME280;7542;49.078;9.194;2024-01-30T02:54:32;99917.13;;;28.49;25.50
14902;BME280;7542;49.078;9.194;2024-01-30T02:55:35;99919.28;;;28.47;25.66
14902;BME280;7542;49.078;9.194;2024-01-30T02:56:37;99916.56;;;28.47;25.70
14902;BME280;7542;49.078;9.194;2024-01-30T02:57:40;99918.19;;;28.48;25.75
14902;BME280;7542;49.078;9.194;2024-01-30T02:58:43;99917.38;;;28.47;25.53
14902;BME280;7542;49.078;9.194;2024-01-30T02:59:45;99916.03;;;28.45;25.67
14902;BME280;7542;49.078;9.194;2024-01-30T03:00:48;99915.75;;;28.46;25.75
14902;BME280;7542;49.078;9.194;2024-01-30T03:01:51;99916.03;;;28.45;25.48
14902;BME280;7542;49.078;9.194;2024-01-30T03:02:53;99908.16;;;28.43;25.67
14902;BME280;7542;49.078;9.194;2024-01-30T03:03:56;99912.50;;;28.44;25.74
14902;BME280;7542;49.078;9.194;2024-01-30T03:05:00;99911.44;;;28.45;25.76
14902;BME280;7542;49.078;9.194;2024-01-30T03:06:03;99914.13;;;28.45;25.51
14902;BME280;7542;49.078;9.194;2024-01-30T03:07:06;99908.97;;;28.44;25.66
14902;BME280;7542;49.078;9.194;2024-01-30T03:08:09;99910.03;;;28.43;25.79
14902;BME280;7542;49.078;9.194;2024-01-30T03:09:11;99905.44;;;28.43;25.54
14902;BME280;7542;49.078;9.194;2024-01-30T03:10:14;99908.41;;;28.42;25.65
14902;BME280;7542;49.078;9.194;2024-01-30T03:11:16;99908.41;;;28.42;25.53
14902;BME280;7542;49.078;9.194;2024-01-30T03:12:19;99905.72;;;28.42;25.46
14902;BME280;7542;49.078;9.194;2024-01-30T03:13:22;99915.94;;;28.40;25.73
14902;BME280;7542;49.078;9.194;2024-01-30T03:14:27;99910.56;;;28.40;25.46
14902;BME280;7542;49.078;9.194;2024-01-30T03:15:29;99913.00;;;28.41;25.50
14902;BME280;7542;49.078;9.194;2024-01-30T03:16:31;99918.66;;;28.40;25.73
14902;BME280;7542;49.078;9.194;2024-01-30T03:17:34;99913.50;;;28.38;25.67
14902;BME280;7542;49.078;9.194;2024-01-30T03:18:36;99910.25;;;28.36;25.70
14902;BME280;7542;49.078;9.194;2024-01-30T03:19:39;99917.28;;;28.37;25.47
14902;BME280;7542;49.078;9.194;2024-01-30T03:20:41;99917.28;;;28.37;25.72
14902;BME280;7542;49.078;9.194;2024-01-30T03:21:44;99916.47;;;28.37;25.39
14902;BME280;7542;49.078;9.194;2024-01-30T03:22:47;99916.47;;;28.37;25.53
14902;BME280;7542;49.078;9.194;2024-01-30T03:23:50;99916.72;;;28.35;25.58
14902;BME280;7542;49.078;9.194;2024-01-30T03:24:52;99918.34;;;28.36;25.42
14902;BME280;7542;49.078;9.194;2024-01-30T03:25:54;99918.34;;;28.36;25.64
14902;BME280;7542;49.078;9.194;2024-01-30T03:26:57;99924.25;;;28.33;25.38
14902;BME280;7542;49.078;9.194;2024-01-30T03:28:00;99919.91;;;28.32;25.66
14902;BME280;7542;49.078;9.194;2024-01-30T03:29:03;99918.88;;;28.33;25.63
14902;BME280;7542;49.078;9.194;2024-01-30T03:30:06;99918.88;;;28.33;25.67
14902;BME280;7542;49.078;9.194;2024-01-30T03:31:09;99916.97;;;28.34;25.62
14902;BME280;7542;49.078;9.194;2024-01-30T03:32:12;99916.41;;;28.32;25.66
14902;BME280;7542;49.078;9.194;2024-01-30T03:33:15;99926.13;;;28.33;25.66
14902;BME280;7542;49.078;9.194;2024-01-30T03:34:18;99915.84;;;28.29;25.64
14902;BME280;7542;49.078;9.194;2024-01-30T03:35:20;99920.16;;;28.30;25.39
14902;BME280;7542;49.078;9.194;2024-01-30T03:36:23;99920.97;;;28.31;25.40
14902;BME280;7542;49.078;9.194;2024-01-30T03:37:25;99920.41;;;28.29;25.48
14902;BME280;7542;49.078;9.194;2024-01-30T03:38:28;99921.22;;;28.29;25.43
14902;BME280;7542;49.078;9.194;2024-01-30T03:39:31;99919.59;;;28.28;25.36
14902;BME280;7542;49.078;9.194;2024-01-30T03:40:34;99920.41;;;28.29;25.52
14902;BME280;7542;49.078;9.194;2024-01-30T03:41:37;99921.72;;;28.26;25.29
14902;BME280;7542;49.078;9.194;2024-01-30T03:42:39;99919.28;;;28.25;25.63
14902;BME280;7542;49.078;9.194;2024-01-30T03:43:42;99917.13;;;28.27;25.53
14902;BME280;7542;49.078;9.194;2024-01-30T03:44:47;99918.78;;;28.28;25.48
14902;BME280;7542;49.078;9.194;2024-01-30T03:45:49;99918.19;;;28.26;25.39
14902;BME280;7542;49.078;9.194;2024-01-30T03:46:52;99920.91;;;28.26;25.29
14902;BME280;7542;49.078;9.194;2024-01-30T03:47:55;99919.28;;;28.25;25.58
14902;BME280;7542;49.078;9.194;2024-01-30T03:48:58;99921.16;;;28.24;25.38
14902;BME280;7542;49.078;9.194;2024-01-30T03:50:00;99920.34;;;28.24;25.59
14902;BME280;7542;49.078;9.194;2024-01-30T03:51:03;99924.13;;;28.23;25.57
14902;BME280;7542;49.078;9.194;2024-01-30T03:52:06;99921.41;;;28.23;25.35
14902;BME280;7542;49.078;9.194;2024-01-30T03:53:08;99919.75;;;28.22;25.61
14902;BME280;7542;49.078;9.194;2024-01-30T03:54:10;99920.81;;;28.21;25.31
14902;BME280;7542;49.078;9.194;2024-01-30T03:55:12;99924.34;;;28.21;25.63
14902;BME280;7542;49.078;9.194;2024-01-30T03:56:15;99920.28;;;28.19;25.43
14902;BME280;7542;49.078;9.194;2024-01-30T03:57:17;99919.19;;;28.20;25.39
14902;BME280;7542;49.078;9.194;2024-01-30T03:58:20;99925.41;;;28.20;25.58
14902;BME280;7542;49.078;9.194;2024-01-30T03:59:24;99917.56;;;28.19;25.32
14902;BME280;7542;49.078;9.194;2024-01-30T04:00:27;99914.88;;;28.19;25.60
14902;BME280;7542;49.078;9.194;2024-01-30T04:01:33;99919.47;;;28.18;25.35
14902;BME280;7542;49.078;9.194;2024-01-30T04:02:36;99912.69;;;28.16;25.38
14902;BME280;7542;49.078;9.194;2024-01-30T04:03:38;99918.66;;;28.18;25.30
14902;BME280;7542;49.078;9.194;2024-01-30T04:04:41;99916.19;;;28.16;25.33
14902;BME280;7542;49.078;9.194;2024-01-30T04:05:43;99914.56;;;28.15;25.52
14902;BME280;7542;49.078;9.194;2024-01-30T04:06:48;99917.84;;;28.17;25.65
14902;BME280;7542;49.078;9.194;2024-01-30T04:07:51;99914.56;;;28.15;25.35
14902;BME280;7542;49.078;9.194;2024-01-30T04:08:53;99921.31;;;28.13;25.73
14902;BME280;7542;49.078;9.194;2024-01-30T04:09:56;99926.44;;;28.14;25.40
14902;BME280;7542;49.078;9.194;2024-01-30T04:10:59;99911.31;;;28.13;25.36
14902;BME280;7542;49.078;9.194;2024-01-30T04:12:05;99906.75;;;28.14;25.60
14902;BME280;7542;49.078;9.194;2024-01-30T04:13:07;99914.84;;;28.14;25.51
14902;BME280;7542;49.078;9.194;2024-01-30T04:14:13;99909.44;;;28.14;25.51
14902;BME280;7542;49.078;9.194;2024-01-30T04:15:16;99912.41;;;28.12;25.40
14902;BME280;7542;49.078;9.194;2024-01-30T04:16:22;99915.09;;;28.12;25.36
14902;BME280;7542;49.078;9.194;2024-01-30T04:17:25;99918.81;;;28.11;25.48
14902;BME280;7542;49.078;9.194;2024-01-30T04:18:30;99912.63;;;28.11;25.51
14902;BME280;7542;49.078;9.194;2024-01-30T04:19:32;99918.00;;;28.11;25.30
14902;BME280;7542;49.078;9.194;2024-01-30T04:20:36;99918.81;;;28.11;25.31
14902;BME280;7542;49.078;9.194;2024-01-30T04:21:38;99912.63;;;28.11;25.28
14902;BME280;7542;49.078;9.194;2024-01-30T04:22:45;99912.88;;;28.09;25.31
14902;BME280;7542;49.078;9.194;2024-01-30T04:23:50;99908.56;;;28.08;25.52
14902;BME280;7542;49.078;9.194;2024-01-30T04:24:52;99901.28;;;28.09;25.51
14902;BME280;7542;49.078;9.194;2024-01-30T04:25:57;99907.75;;;28.08;25.43
14902;BME280;7542;49.078;9.194;2024-01-30T04:26:59;99907.75;;;28.08;25.52
14902;BME280;7542;49.078;9.194;2024-01-30T04:28:05;99904.47;;;28.06;25.38
14902;BME280;7542;49.078;9.194;2024-01-30T04:29:08;99909.88;;;28.06;25.38
14902;BME280;7542;49.078;9.194;2024-01-30T04:30:10;99909.06;;;28.05;25.50
14902;BME280;7542;49.078;9.194;2024-01-30T04:31:13;99904.75;;;28.04;25.42
14902;BME280;7542;49.078;9.194;2024-01-30T04:32:17;99906.38;;;28.05;25.49
14902;BME280;7542;49.078;9.194;2024-01-30T04:33:20;99904.47;;;28.06;25.25
14902;BME280;7542;49.078;9.194;2024-01-30T04:34:22;99904.75;;;28.04;25.50
14902;BME280;7542;49.078;9.194;2024-01-30T04:35:25;99906.38;;;28.05;25.44
14902;BME280;7542;49.078;9.194;2024-01-30T04:36:28;99906.63;;;28.04;25.29
14902;BME280;7542;49.078;9.194;2024-01-30T04:37:30;99905.81;;;28.03;25.48
14902;BME280;7542;49.078;9.194;2024-01-30T04:38:33;99909.31;;;28.04;25.52
14902;BME280;7542;49.078;9.194;2024-01-30T04:39:35;99905.47;;;27.99;25.55
14902;BME280;7542;49.078;9.194;2024-01-30T04:40:39;99914.38;;;28.00;25.36
14902;BME280;7542;49.078;9.194;2024-01-30T04:41:42;99915.22;;;28.00;25.54
14902;BME280;7542;49.078;9.194;2024-01-30T04:42:44;99914.16;;;28.01;25.38
14902;BME280;7542;49.078;9.194;2024-01-30T04:43:48;99916.25;;;27.99;25.52
14902;BME280;7542;49.078;9.194;2024-01-30T04:44:51;99914.38;;;28.00;25.63
14902;BME280;7542;49.078;9.194;2024-01-30T04:45:53;99921.66;;;27.99;25.53
14902;BME280;7542;49.078;9.194;2024-01-30T04:46:56;99913.56;;;27.99;25.59
14902;BME280;7542;49.078;9.194;2024-01-30T04:48:01;99919.78;;;28.00;25.56
14902;BME280;7542;49.078;9.194;2024-01-30T04:49:04;99918.97;;;27.99;25.54
14902;BME280;7542;49.078;9.194;2024-01-30T04:50:07;99920.03;;;27.98;25.65
14902;BME280;7542;49.078;9.194;2024-01-30T04:51:11;99914.63;;;27.98;25.56
14902;BME280;7542;49.078;9.194;2024-01-30T04:52:13;99913.25;;;27.96;25.55
14902;BME280;7542;49.078;9.194;2024-01-30T04:53:16;99917.59;;;27.97;25.56
14902;BME280;7542;49.078;9.194;2024-01-30T04:54:18;99918.41;;;27.97;25.76
14902;BME280;7542;49.078;9.194;2024-01-30T04:55:23;99917.59;;;27.97;25.69
14902;BME280;7542;49.078;9.194;2024-01-30T04:56:26;99921.09;;;27.97;25.76
14902;BME280;7542;49.078;9.194;2024-01-30T04:57:32;99920.03;;;27.98;25.45
14902;BME280;7542;49.078;9.194;2024-01-30T04:58:36;99920.28;;;27.97;25.73
14902;BME280;7542;49.078;9.194;2024-01-30T04:59:38;99924.06;;;27.96;25.57
14902;BME280;7542;49.078;9.194;2024-01-30T05:00:52;99927.63;;;28.01;25.74
14902;BME280;7542;49.078;9.194;2024-01-30T05:01:55;99925.94;;;27.95;25.67
14902;BME280;7542;49.078;9.194;2024-01-30T05:02:58;99919.72;;;27.95;25.41
14902;BME280;7542;49.078;9.194;2024-01-30T05:04:00;99925.69;;;27.97;25.41
14902;BME280;7542;49.078;9.194;2024-01-30T05:05:03;99921.88;;;27.93;25.40
14902;BME280;7542;49.078;9.194;2024-01-30T05:06:06;99916.47;;;27.93;25.50
14902;BME280;7542;49.078;9.194;2024-01-30T05:07:09;99922.94;;;27.92;25.38
14902;BME280;7542;49.078;9.194;2024-01-30T05:08:11;99927.25;;;27.93;25.35
14902;BME280;7542;49.078;9.194;2024-01-30T05:09:13;99926.44;;;27.92;25.51
14902;BME280;7542;49.078;9.194;2024-01-30T05:10:15;99926.91;;;27.89;25.34
14902;BME280;7542;49.078;9.194;2024-01-30T05:11:18;99929.38;;;27.91;25.37
14902;BME280;7542;49.078;9.194;2024-01-30T05:12:20;99927.75;;;27.90;25.48
14902;BME280;7542;49.078;9.194;2024-01-30T05:13:22;99926.09;;;27.89;25.30
14902;BME280;7542;49.078;9.194;2024-01-30T05:14:25;99929.88;;;27.88;25.58
14902;BME280;7542;49.078;9.194;2024-01-30T05:15:27;99928.81;;;27.89;25.52
14902;BME280;7542;49.078;9.194;2024-01-30T05:16:29;99925.28;;;27.88;25.24
14902;BME280;7542;49.078;9.194;2024-01-30T05:17:32;99938.78;;;27.88;25.42
14902;BME280;7542;49.078;9.194;2024-01-30T05:18:34;99929.88;;;27.88;25.52
14902;BME280;7542;49.078;9.194;2024-01-30T05:19:36;99925.53;;;27.87;25.54
14902;BME280;7542;49.078;9.194;2024-01-30T05:20:39;99922.03;;;27.86;25.34
14902;BME280;7542;49.078;9.194;2024-01-30T05:21:42;99931.75;;;27.87;25.35
14902;BME280;7542;49.078;9.194;2024-01-30T05:22:44;99931.75;;;27.87;25.51
14902;BME280;7542;49.078;9.194;2024-01-30T05:23:47;99936.59;;;27.85;25.30
14902;BME280;7542;49.078;9.194;2024-01-30T05:24:49;99937.41;;;27.86;25.53
14902;BME280;7542;49.078;9.194;2024-01-30T05:25:52;99932.81;;;27.86;25.59
14902;BME280;7542;49.078;9.194;2024-01-30T05:26:54;99947.38;;;27.85;25.38
14902;BME280;7542;49.078;9.194;2024-01-30T05:27:57;99943.59;;;27.86;25.49
14902;BME280;7542;49.078;9.194;2024-01-30T05:28:59;99938.47;;;27.85;25.59
14902;BME280;7542;49.078;9.194;2024-01-30T05:30:01;99939.53;;;27.84;25.40
14902;BME280;7542;49.078;9.194;2024-01-30T05:31:04;99939.53;;;27.84;25.51
14902;BME280;7542;49.078;9.194;2024-01-30T05:32:06;99939.78;;;27.82;25.43
14902;BME280;7542;49.078;9.194;2024-01-30T05:33:08;99942.47;;;27.82;25.60
14902;BME280;7542;49.078;9.194;2024-01-30T05:34:12;99945.75;;;27.84;25.44
14902;BME280;7542;49.078;9.194;2024-01-30T05:35:14;99943.03;;;27.84;25.40
14902;BME280;7542;49.078;9.194;2024-01-30T05:36:16;99944.09;;;27.83;25.46
14902;BME280;7542;49.078;9.194;2024-01-30T05:37:19;99939.53;;;27.84;25.44
14902;BME280;7542;49.078;9.194;2024-01-30T05:38:21;99942.22;;;27.84;25.45